sensor_id;sensor_type;location;lat;lon;timestamp;P1;durP1;ratioP1;P2;durP2;ratioP2
13584;SDS011;6863;48.402;9.994;2023-04-25T00:00:46;4.77;;;3.70;;
13584;SDS011;6863;48.402;9.994;2023-04-25T00:03:12;3.37;;;3.17;;
13584;SDS011;6863;48.402;9.994;2023-04-25T00:05:38;3.73;;;3.43;;
13584;SDS011;6863;48.402;9.994;2023-04-25T00:08:04;3.63;;;3.33;;
13584;SDS011;6863;48.402;9.994;2023-04-25T00:10:30;4.50;;;3.87;;
13584;SDS011;6863;48.402;9.994;2023-04-25T00:12:56;4.40;;;3.70;;
13584;SDS011;6863;48.402;9.994;2023-04-25T00:15:22;3.80;;;3.50;;
13584;SDS011;6863;48.402;9.994;2023-04-25T00:17:49;3.63;;;3.33;;
13584;SDS011;6863;48.402;9.994;2023-04-25T00:20:14;3.73;;;3.43;;
13584;SDS011;6863;48.402;9.994;2023-04-25T00:22:40;4.43;;;3.97;;
13584;SDS011;6863;48.402;9.994;2023-04-25T00:25:06;9.77;;;3.97;;
13584;SDS011;6863;48.402;9.994;2023-04-25T00:27:32;4.53;;;3.77;;
13584;SDS011;6863;48.402;9.994;2023-04-25T00:29:58;5.00;;;3.60;;
13584;SDS011;6863;48.402;9.994;2023-04-25T00:32:23;4.27;;;3.73;;
13584;SDS011;6863;48.402;9.994;2023-04-25T00:34:49;4.07;;;3.57;;
13584;SDS011;6863;48.402;9.994;2023-04-25T00:37:15;5.27;;;3.40;;
13584;SDS011;6863;48.402;9.994;2023-04-25T00:39:40;3.53;;;3.23;;
13584;SDS011;6863;48.402;9.994;2023-04-25T00:42:06;3.80;;;3.50;;
13584;SDS011;6863;48.402;9.994;2023-04-25T00:44:33;4.03;;;3.67;;
13584;SDS011;6863;48.402;9.994;2023-04-25T00:47:01;3.97;;;3.57;;
13584;SDS011;6863;48.402;9.994;2023-04-25T00:49:27;4.27;;;3.87;;
13584;SDS011;6863;48.402;9.994;2023-04-25T00:51:54;5.73;;;4.20;;
13584;SDS011;6863;48.402;9.994;2023-04-25T00:54:20;6.30;;;4.30;;
13584;SDS011;6863;48.402;9.994;2023-04-25T00:56:46;3.97;;;3.57;;
13584;SDS011;6863;48.402;9.994;2023-04-25T00:59:11;4.47;;;4.17;;
13584;SDS011;6863;48.402;9.994;2023-04-25T01:01:38;5.57;;;3.83;;
13584;SDS011;6863;48.402;9.994;2023-04-25T01:04:04;5.80;;;4.03;;
13584;SDS011;6863;48.402;9.994;2023-04-25T01:06:30;4.13;;;3.73;;
13584;SDS011;6863;48.402;9.994;2023-04-25T01:08:57;4.83;;;3.90;;
13584;SDS011;6863;48.402;9.994;2023-04-25T01:11:23;5.10;;;4.13;;
13584;SDS011;6863;48.402;9.994;2023-04-25T01:13:49;5.00;;;3.73;;
13584;SDS011;6863;48.402;9.994;2023-04-25T01:16:18;4.03;;;3.63;;
13584;SDS011;6863;48.402;9.994;2023-04-25T01:18:44;3.77;;;3.47;;
13584;SDS011;6863;48.402;9.994;2023-04-25T01:21:11;3.83;;;3.53;;
13584;SDS011;6863;48.402;9.994;2023-04-25T01:23:40;5.97;;;3.83;;
13584;SDS011;6863;48.402;9.994;2023-04-25T01:26:08;4.40;;;4.00;;
13584;SDS011;6863;48.402;9.994;2023-04-25T01:28:34;5.77;;;3.80;;
13584;SDS011;6863;48.402;9.994;2023-04-25T01:31:01;5.83;;;4.00;;
13584;SDS011;6863;48.402;9.994;2023-04-25T01:33:27;4.27;;;3.83;;
13584;SDS011;6863;48.402;9.994;2023-04-25T01:35:54;5.83;;;3.90;;
13584;SDS011;6863;48.402;9.994;2023-04-25T01:38:20;4.10;;;3.70;;
13584;SDS011;6863;48.402;9.994;2023-04-25T01:40:45;5.63;;;5.03;;
13584;SDS011;6863;48.402;9.994;2023-04-25T01:43:13;5.40;;;4.90;;
13584;SDS011;6863;48.402;9.994;2023-04-25T01:45:40;5.03;;;4.53;;
13584;SDS011;6863;48.402;9.994;2023-04-25T01:48:12;6.17;;;4.57;;
13584;SDS011;6863;48.402;9.994;2023-04-25T01:50:39;7.97;;;4.50;;
13584;SDS011;6863;48.402;9.994;2023-04-25T01:53:05;5.20;;;4.23;;
13584;SDS011;6863;48.402;9.994;2023-04-25T01:55:31;7.33;;;4.20;;
13584;SDS011;6863;48.402;9.994;2023-04-25T01:57:57;5.20;;;4.50;;
13584;SDS011;6863;48.402;9.994;2023-04-25T02:00:23;4.90;;;3.77;;
13584;SDS011;6863;48.402;9.994;2023-04-25T02:02:49;5.27;;;4.40;;
13584;SDS011;6863;48.402;9.994;2023-04-25T02:05:16;11.57;;;3.97;;
13584;SDS011;6863;48.402;9.994;2023-04-25T02:07:41;5.80;;;4.03;;
13584;SDS011;6863;48.402;9.994;2023-04-25T02:10:07;6.93;;;3.90;;
13584;SDS011;6863;48.402;9.994;2023-04-25T02:12:33;4.67;;;4.23;;
13584;SDS011;6863;48.402;9.994;2023-04-25T02:15:00;6.27;;;4.27;;
13584;SDS011;6863;48.402;9.994;2023-04-25T02:17:26;5.10;;;4.40;;
13584;SDS011;6863;48.402;9.994;2023-04-25T02:19:52;4.73;;;3.77;;
13584;SDS011;6863;48.402;9.994;2023-04-25T02:22:17;4.70;;;3.97;;
13584;SDS011;6863;48.402;9.994;2023-04-25T02:24:43;4.63;;;4.13;;
13584;SDS011;6863;48.402;9.994;2023-04-25T02:27:08;5.37;;;4.37;;
13584;SDS011;6863;48.402;9.994;2023-04-25T02:29:34;5.43;;;4.13;;
13584;SDS011;6863;48.402;9.994;2023-04-25T02:31:59;5.13;;;4.43;;
13584;SDS011;6863;48.402;9.994;2023-04-25T02:34:25;5.77;;;4.57;;
13584;SDS011;6863;48.402;9.994;2023-04-25T02:36:51;6.23;;;4.80;;
13584;SDS011;6863;48.402;9.994;2023-04-25T02:39:16;5.50;;;4.83;;
13584;SDS011;6863;48.402;9.994;2023-04-25T02:41:42;6.27;;;4.83;;
13584;SDS011;6863;48.402;9.994;2023-04-25T02:44:07;5.10;;;4.63;;
13584;SDS011;6863;48.402;9.994;2023-04-25T02:46:33;4.90;;;4.50;;
13584;SDS011;6863;48.402;9.994;2023-04-25T02:48:59;4.83;;;4.27;;
13584;SDS011;6863;48.402;9.994;2023-04-25T02:51:24;4.90;;;4.20;;
13584;SDS011;6863;48.402;9.994;2023-04-25T02:53:50;4.90;;;4.50;;
13584;SDS011;6863;48.402;9.994;2023-04-25T02:56:15;5.30;;;4.90;;
13584;SDS011;6863;48.402;9.994;2023-04-25T02:58:41;5.87;;;5.30;;
13584;SDS011;6863;48.402;9.994;2023-04-25T03:01:06;6.10;;;5.07;;
13584;SDS011;6863;48.402;9.994;2023-04-25T03:03:32;7.27;;;6.57;;
13584;SDS011;6863;48.402;9.994;2023-04-25T03:05:57;5.67;;;4.60;;
13584;SDS011;6863;48.402;9.994;2023-04-25T03:08:23;6.20;;;5.00;;
13584;SDS011;6863;48.402;9.994;2023-04-25T03:10:50;6.73;;;5.27;;
13584;SDS011;6863;48.402;9.994;2023-04-25T03:13:17;5.87;;;4.93;;
13584;SDS011;6863;48.402;9.994;2023-04-25T03:15:43;6.30;;;5.70;;
13584;SDS011;6863;48.402;9.994;2023-04-25T03:18:08;7.67;;;5.23;;
13584;SDS011;6863;48.402;9.994;2023-04-25T03:20:34;5.63;;;5.07;;
13584;SDS011;6863;48.402;9.994;2023-04-25T03:22:59;5.13;;;4.67;;
13584;SDS011;6863;48.402;9.994;2023-04-25T03:25:25;8.27;;;5.97;;
13584;SDS011;6863;48.402;9.994;2023-04-25T03:27:50;5.10;;;4.60;;
13584;SDS011;6863;48.402;9.994;2023-04-25T03:32:48;6.33;;;5.00;;
13584;SDS011;6863;48.402;9.994;2023-04-25T03:35:14;7.90;;;5.40;;
13584;SDS011;6863;48.402;9.994;2023-04-25T03:37:39;6.77;;;5.20;;
13584;SDS011;6863;48.402;9.994;2023-04-25T03:40:05;6.83;;;5.03;;
13584;SDS011;6863;48.402;9.994;2023-04-25T03:42:31;6.50;;;4.97;;
13584;SDS011;6863;48.402;9.994;2023-04-25T03:44:57;5.23;;;4.70;;
13584;SDS011;6863;48.402;9.994;2023-04-25T03:47:22;5.60;;;4.47;;
13584;SDS011;6863;48.402;9.994;2023-04-25T03:49:48;5.57;;;5.07;;
13584;SDS011;6863;48.402;9.994;2023-04-25T03:52:16;5.63;;;5.13;;
13584;SDS011;6863;48.402;9.994;2023-04-25T03:54:43;5.53;;;5.03;;
13584;SDS011;6863;48.402;9.994;2023-04-25T03:57:08;5.17;;;4.67;;
13584;SDS011;6863;48.402;9.994;2023-04-25T03:59:35;6.00;;;5.20;;
13584;SDS011;6863;48.402;9.994;2023-04-25T04:02:00;5.77;;;4.97;;
13584;SDS011;6863;48.402;9.994;2023-04-25T04:04:26;4.77;;;4.33;;
13584;SDS011;6863;48.402;9.994;2023-04-25T04:06:52;4.83;;;4.17;;
13584;SDS011;6863;48.402;9.994;2023-04-25T04:09:17;4.50;;;4.10;;
13584;SDS011;6863;48.402;9.994;2023-04-25T04:11:44;5.90;;;5.30;;
13584;SDS011;6863;48.402;9.994;2023-04-25T04:14:10;5.87;;;5.27;;
13584;SDS011;6863;48.402;9.994;2023-04-25T04:16:35;5.57;;;5.07;;
13584;SDS011;6863;48.402;9.994;2023-04-25T04:19:01;7.37;;;4.70;;
13584;SDS011;6863;48.402;9.994;2023-04-25T04:21:27;4.63;;;4.23;;
13584;SDS011;6863;48.402;9.994;2023-04-25T04:23:52;5.30;;;4.50;;
13584;SDS011;6863;48.402;9.994;2023-04-25T04:26:19;6.60;;;4.80;;
13584;SDS011;6863;48.402;9.994;2023-04-25T04:28:48;4.83;;;4.27;;
13584;SDS011;6863;48.402;9.994;2023-04-25T04:31:15;4.93;;;4.40;;
13584;SDS011;6863;48.402;9.994;2023-04-25T04:33:43;5.63;;;4.60;;
13584;SDS011;6863;48.402;9.994;2023-04-25T04:36:09;5.80;;;5.03;;
13584;SDS011;6863;48.402;9.994;2023-04-25T04:38:35;6.47;;;5.27;;
13584;SDS011;6863;48.402;9.994;2023-04-25T04:41:01;5.40;;;4.70;;
13584;SDS011;6863;48.402;9.994;2023-04-25T04:43:27;5.43;;;3.90;;
13584;SDS011;6863;48.402;9.994;2023-04-25T04:45:53;5.97;;;4.00;;
13584;SDS011;6863;48.402;9.994;2023-04-25T04:48:21;5.07;;;4.67;;
13584;SDS011;6863;48.402;9.994;2023-04-25T04:50:46;7.53;;;5.07;;
13584;SDS011;6863;48.402;9.994;2023-04-25T04:53:13;6.13;;;4.83;;
13584;SDS011;6863;48.402;9.994;2023-04-25T04:55:38;4.97;;;4.37;;
13584;SDS011;6863;48.402;9.994;2023-04-25T04:58:06;6.33;;;4.70;;
13584;SDS011;6863;48.402;9.994;2023-04-25T05:00:32;5.77;;;4.43;;
13584;SDS011;6863;48.402;9.994;2023-04-25T05:02:58;7.37;;;5.33;;
13584;SDS011;6863;48.402;9.994;2023-04-25T05:05:23;4.27;;;3.87;;
13584;SDS011;6863;48.402;9.994;2023-04-25T05:07:49;4.10;;;3.70;;
13584;SDS011;6863;48.402;9.994;2023-04-25T05:10:16;4.50;;;3.77;;
13584;SDS011;6863;48.402;9.994;2023-04-25T05:12:43;5.37;;;4.33;;
13584;SDS011;6863;48.402;9.994;2023-04-25T05:15:09;4.57;;;3.90;;
13584;SDS011;6863;48.402;9.994;2023-04-25T05:17:35;6.63;;;4.40;;
13584;SDS011;6863;48.402;9.994;2023-04-25T05:20:00;4.77;;;4.23;;
13584;SDS011;6863;48.402;9.994;2023-04-25T05:22:27;4.90;;;3.97;;
13584;SDS011;6863;48.402;9.994;2023-04-25T05:24:53;5.23;;;3.93;;
13584;SDS011;6863;48.402;9.994;2023-04-25T05:27:19;7.73;;;4.73;;
13584;SDS011;6863;48.402;9.994;2023-04-25T05:29:45;4.67;;;3.80;;
13584;SDS011;6863;48.402;9.994;2023-04-25T05:32:14;4.33;;;3.93;;
13584;SDS011;6863;48.402;9.994;2023-04-25T05:34:39;5.23;;;4.27;;
13584;SDS011;6863;48.402;9.994;2023-04-25T05:37:05;5.23;;;4.37;;
13584;SDS011;6863;48.402;9.994;2023-04-25T05:39:31;5.47;;;4.37;;
13584;SDS011;6863;48.402;9.994;2023-04-25T05:41:56;5.87;;;4.40;;
13584;SDS011;6863;48.402;9.994;2023-04-25T05:44:22;4.70;;;4.30;;
13584;SDS011;6863;48.402;9.994;2023-04-25T05:46:48;4.50;;;3.93;;
13584;SDS011;6863;48.402;9.994;2023-04-25T05:49:13;5.93;;;4.40;;
13584;SDS011;6863;48.402;9.994;2023-04-25T05:51:39;6.13;;;4.27;;
13584;SDS011;6863;48.402;9.994;2023-04-25T05:54:05;6.13;;;4.40;;
13584;SDS011;6863;48.402;9.994;2023-04-25T05:56:30;6.87;;;3.90;;
13584;SDS011;6863;48.402;9.994;2023-04-25T05:58:56;5.37;;;4.30;;
13584;SDS011;6863;48.402;9.994;2023-04-25T06:01:22;4.70;;;4.10;;
13584;SDS011;6863;48.402;9.994;2023-04-25T06:03:48;4.70;;;4.13;;
13584;SDS011;6863;48.402;9.994;2023-04-25T06:06:13;4.10;;;3.80;;
13584;SDS011;6863;48.402;9.994;2023-04-25T06:08:40;4.47;;;3.80;;
13584;SDS011;6863;48.402;9.994;2023-04-25T06:11:06;6.50;;;4.47;;
13584;SDS011;6863;48.402;9.994;2023-04-25T06:13:31;6.10;;;3.83;;
13584;SDS011;6863;48.402;9.994;2023-04-25T06:15:57;4.40;;;4.00;;
13584;SDS011;6863;48.402;9.994;2023-04-25T06:18:23;4.20;;;3.80;;
13584;SDS011;6863;48.402;9.994;2023-04-25T06:20:48;4.60;;;3.70;;
13584;SDS011;6863;48.402;9.994;2023-04-25T06:23:14;3.90;;;3.60;;
13584;SDS011;6863;48.402;9.994;2023-04-25T06:25:40;5.63;;;3.97;;
13584;SDS011;6863;48.402;9.994;2023-04-25T06:28:05;4.33;;;3.93;;
13584;SDS011;6863;48.402;9.994;2023-04-25T06:30:31;5.30;;;3.57;;
13584;SDS011;6863;48.402;9.994;2023-04-25T06:32:57;4.90;;;3.83;;
13584;SDS011;6863;48.402;9.994;2023-04-25T06:35:22;5.77;;;3.40;;
13584;SDS011;6863;48.402;9.994;2023-04-25T06:37:48;3.50;;;3.20;;
13584;SDS011;6863;48.402;9.994;2023-04-25T06:40:13;4.63;;;3.50;;
13584;SDS011;6863;48.402;9.994;2023-04-25T06:42:39;4.67;;;3.73;;
13584;SDS011;6863;48.402;9.994;2023-04-25T06:45:05;3.43;;;3.13;;
13584;SDS011;6863;48.402;9.994;2023-04-25T06:47:31;3.77;;;3.47;;
13584;SDS011;6863;48.402;9.994;2023-04-25T06:49:57;4.07;;;3.70;;
13584;SDS011;6863;48.402;9.994;2023-04-25T06:52:22;3.60;;;3.30;;
13584;SDS011;6863;48.402;9.994;2023-04-25T06:54:48;2.90;;;2.70;;
13584;SDS011;6863;48.402;9.994;2023-04-25T06:57:14;3.17;;;2.87;;
13584;SDS011;6863;48.402;9.994;2023-04-25T06:59:39;3.40;;;3.00;;
13584;SDS011;6863;48.402;9.994;2023-04-25T07:02:05;3.93;;;3.07;;
13584;SDS011;6863;48.402;9.994;2023-04-25T07:04:31;7.30;;;3.30;;
13584;SDS011;6863;48.402;9.994;2023-04-25T07:06:56;3.40;;;3.10;;
13584;SDS011;6863;48.402;9.994;2023-04-25T07:09:22;3.57;;;3.23;;
13584;SDS011;6863;48.402;9.994;2023-04-25T07:11:48;5.63;;;3.40;;
13584;SDS011;6863;48.402;9.994;2023-04-25T07:14:13;5.17;;;3.83;;
13584;SDS011;6863;48.402;9.994;2023-04-25T07:16:39;2.87;;;2.67;;
13584;SDS011;6863;48.402;9.994;2023-04-25T07:19:04;3.77;;;3.30;;
13584;SDS011;6863;48.402;9.994;2023-04-25T07:21:30;6.67;;;3.60;;
13584;SDS011;6863;48.402;9.994;2023-04-25T07:23:56;4.13;;;3.40;;
13584;SDS011;6863;48.402;9.994;2023-04-25T07:26:22;5.07;;;3.30;;
13584;SDS011;6863;48.402;9.994;2023-04-25T07:28:47;3.93;;;3.43;;
13584;SDS011;6863;48.402;9.994;2023-04-25T07:31:16;3.50;;;3.20;;
13584;SDS011;6863;48.402;9.994;2023-04-25T07:33:43;4.77;;;2.97;;
13584;SDS011;6863;48.402;9.994;2023-04-25T07:36:10;6.10;;;3.53;;
13584;SDS011;6863;48.402;9.994;2023-04-25T07:38:35;3.33;;;3.03;;
13584;SDS011;6863;48.402;9.994;2023-04-25T07:41:01;4.53;;;3.23;;
13584;SDS011;6863;48.402;9.994;2023-04-25T07:43:27;3.97;;;3.30;;
13584;SDS011;6863;48.402;9.994;2023-04-25T07:45:52;6.10;;;4.10;;
13584;SDS011;6863;48.402;9.994;2023-04-25T07:48:18;5.63;;;3.60;;
13584;SDS011;6863;48.402;9.994;2023-04-25T07:50:44;4.43;;;3.43;;
13584;SDS011;6863;48.402;9.994;2023-04-25T07:53:10;4.63;;;3.60;;
13584;SDS011;6863;48.402;9.994;2023-04-25T07:55:35;5.97;;;3.33;;
13584;SDS011;6863;48.402;9.994;2023-04-25T07:58:04;4.17;;;3.77;;
13584;SDS011;6863;48.402;9.994;2023-04-25T08:00:33;4.50;;;4.07;;
13584;SDS011;6863;48.402;9.994;2023-04-25T08:02:59;5.17;;;3.90;;
13584;SDS011;6863;48.402;9.994;2023-04-25T08:05:25;4.43;;;3.67;;
13584;SDS011;6863;48.402;9.994;2023-04-25T08:07:50;4.53;;;3.27;;
13584;SDS011;6863;48.402;9.994;2023-04-25T08:10:16;6.67;;;3.77;;
13584;SDS011;6863;48.402;9.994;2023-04-25T08:12:42;4.60;;;3.37;;
13584;SDS011;6863;48.402;9.994;2023-04-25T08:15:07;3.77;;;3.47;;
13584;SDS011;6863;48.402;9.994;2023-04-25T08:17:34;6.93;;;3.73;;
13584;SDS011;6863;48.402;9.994;2023-04-25T08:19:59;9.77;;;4.70;;
13584;SDS011;6863;48.402;9.994;2023-04-25T08:22:25;8.43;;;3.73;;
13584;SDS011;6863;48.402;9.994;2023-04-25T08:24:50;4.20;;;3.33;;
13584;SDS011;6863;48.402;9.994;2023-04-25T08:27:17;6.43;;;5.50;;
13584;SDS011;6863;48.402;9.994;2023-04-25T08:29:43;5.20;;;3.53;;
13584;SDS011;6863;48.402;9.994;2023-04-25T08:32:08;6.27;;;3.30;;
13584;SDS011;6863;48.402;9.994;2023-04-25T08:34:34;4.90;;;3.10;;
13584;SDS011;6863;48.402;9.994;2023-04-25T08:37:01;3.07;;;2.47;;
13584;SDS011;6863;48.402;9.994;2023-04-25T08:39:26;2.60;;;2.40;;
13584;SDS011;6863;48.402;9.994;2023-04-25T08:41:52;4.03;;;2.60;;
13584;SDS011;6863;48.402;9.994;2023-04-25T08:44:18;3.57;;;3.03;;
13584;SDS011;6863;48.402;9.994;2023-04-25T08:46:45;3.40;;;2.87;;
13584;SDS011;6863;48.402;9.994;2023-04-25T08:49:14;3.50;;;3.10;;
13584;SDS011;6863;48.402;9.994;2023-04-25T08:51:48;3.23;;;2.93;;
13584;SDS011;6863;48.402;9.994;2023-04-25T08:54:16;4.07;;;3.67;;
13584;SDS011;6863;48.402;9.994;2023-04-25T08:56:45;3.33;;;3.03;;
13584;SDS011;6863;48.402;9.994;2023-04-25T08:59:12;4.20;;;3.27;;
13584;SDS011;6863;48.402;9.994;2023-04-25T09:01:38;3.87;;;3.27;;
13584;SDS011;6863;48.402;9.994;2023-04-25T09:04:04;3.97;;;3.43;;
13584;SDS011;6863;48.402;9.994;2023-04-25T09:06:30;3.33;;;3.13;;
13584;SDS011;6863;48.402;9.994;2023-04-25T09:09:03;5.50;;;3.17;;
13584;SDS011;6863;48.402;9.994;2023-04-25T09:11:30;3.50;;;2.90;;
13584;SDS011;6863;48.402;9.994;2023-04-25T09:14:12;3.80;;;2.97;;
13584;SDS011;6863;48.402;9.994;2023-04-25T09:19:30;3.57;;;3.20;;
13584;SDS011;6863;48.402;9.994;2023-04-25T09:21:58;3.53;;;3.23;;
13584;SDS011;6863;48.402;9.994;2023-04-25T09:24:35;3.80;;;2.83;;
13584;SDS011;6863;48.402;9.994;2023-04-25T09:27:07;3.57;;;2.80;;
13584;SDS011;6863;48.402;9.994;2023-04-25T09:29:38;6.80;;;3.90;;
13584;SDS011;6863;48.402;9.994;2023-04-25T09:34:43;15.20;;;5.27;;
13584;SDS011;6863;48.402;9.994;2023-04-25T09:37:16;3.57;;;3.23;;
13584;SDS011;6863;48.402;9.994;2023-04-25T09:39:49;3.30;;;3.10;;
13584;SDS011;6863;48.402;9.994;2023-04-25T09:42:18;3.70;;;3.40;;
13584;SDS011;6863;48.402;9.994;2023-04-25T09:44:47;4.83;;;3.50;;
13584;SDS011;6863;48.402;9.994;2023-04-25T09:47:13;3.80;;;3.10;;
13584;SDS011;6863;48.402;9.994;2023-04-25T09:49:43;3.90;;;3.50;;
13584;SDS011;6863;48.402;9.994;2023-04-25T09:52:13;4.17;;;3.60;;
13584;SDS011;6863;48.402;9.994;2023-04-25T09:54:40;19.93;;;6.83;;
13584;SDS011;6863;48.402;9.994;2023-04-25T09:59:39;4.57;;;3.40;;
13584;SDS011;6863;48.402;9.994;2023-04-25T10:02:09;5.30;;;3.70;;
13584;SDS011;6863;48.402;9.994;2023-04-25T10:04:37;3.27;;;2.80;;
13584;SDS011;6863;48.402;9.994;2023-04-25T10:07:07;4.20;;;3.80;;
13584;SDS011;6863;48.402;9.994;2023-04-25T10:09:34;5.73;;;3.30;;
13584;SDS011;6863;48.402;9.994;2023-04-25T10:12:03;7.33;;;4.70;;
13584;SDS011;6863;48.402;9.994;2023-04-25T10:14:30;3.10;;;2.90;;
13584;SDS011;6863;48.402;9.994;2023-04-25T10:16:57;5.80;;;4.00;;
13584;SDS011;6863;48.402;9.994;2023-04-25T10:19:24;4.63;;;4.17;;
13584;SDS011;6863;48.402;9.994;2023-04-25T10:21:52;4.33;;;3.93;;
13584;SDS011;6863;48.402;9.994;2023-04-25T10:24:21;4.67;;;4.03;;
13584;SDS011;6863;48.402;9.994;2023-04-25T10:26:47;8.63;;;5.20;;
13584;SDS011;6863;48.402;9.994;2023-04-25T10:29:18;7.83;;;4.20;;
13584;SDS011;6863;48.402;9.994;2023-04-25T10:31:48;3.37;;;3.07;;
13584;SDS011;6863;48.402;9.994;2023-04-25T10:34:13;3.60;;;2.90;;
13584;SDS011;6863;48.402;9.994;2023-04-25T10:36:53;2.23;;;1.97;;
13584;SDS011;6863;48.402;9.994;2023-04-25T10:39:23;2.33;;;2.13;;
13584;SDS011;6863;48.402;9.994;2023-04-25T10:41:56;3.00;;;2.43;;
13584;SDS011;6863;48.402;9.994;2023-04-25T10:44:26;3.27;;;2.30;;
13584;SDS011;6863;48.402;9.994;2023-04-25T10:46:52;11.00;;;5.23;;
13584;SDS011;6863;48.402;9.994;2023-04-25T10:49:30;14.73;;;7.13;;
13584;SDS011;6863;48.402;9.994;2023-04-25T10:52:24;13.90;;;6.27;;
13584;SDS011;6863;48.402;9.994;2023-04-25T10:54:52;8.97;;;5.90;;
13584;SDS011;6863;48.402;9.994;2023-04-25T11:02:38;4.73;;;3.13;;
13584;SDS011;6863;48.402;9.994;2023-04-25T11:05:30;3.30;;;2.53;;
13584;SDS011;6863;48.402;9.994;2023-04-25T11:08:01;2.13;;;1.93;;
13584;SDS011;6863;48.402;9.994;2023-04-25T11:10:28;2.77;;;2.53;;
13584;SDS011;6863;48.402;9.994;2023-04-25T11:12:56;2.93;;;2.40;;
13584;SDS011;6863;48.402;9.994;2023-04-25T11:15:25;2.37;;;1.90;;
13584;SDS011;6863;48.402;9.994;2023-04-25T11:17:51;1.67;;;1.57;;
13584;SDS011;6863;48.402;9.994;2023-04-25T11:20:18;1.13;;;1.13;;
13584;SDS011;6863;48.402;9.994;2023-04-25T11:22:44;2.10;;;1.90;;
13584;SDS011;6863;48.402;9.994;2023-04-25T11:25:11;2.20;;;2.10;;
13584;SDS011;6863;48.402;9.994;2023-04-25T11:27:50;2.50;;;2.30;;
13584;SDS011;6863;48.402;9.994;2023-04-25T11:30:20;2.70;;;2.50;;
13584;SDS011;6863;48.402;9.994;2023-04-25T11:32:46;3.43;;;2.80;;
13584;SDS011;6863;48.402;9.994;2023-04-25T11:35:12;3.17;;;2.97;;
13584;SDS011;6863;48.402;9.994;2023-04-25T11:37:38;3.13;;;2.83;;
13584;SDS011;6863;48.402;9.994;2023-04-25T11:40:04;4.60;;;4.20;;
13584;SDS011;6863;48.402;9.994;2023-04-25T11:42:44;3.27;;;2.80;;
13584;SDS011;6863;48.402;9.994;2023-04-25T11:45:11;5.20;;;2.90;;
13584;SDS011;6863;48.402;9.994;2023-04-25T11:47:38;6.37;;;4.50;;
13584;SDS011;6863;48.402;9.994;2023-04-25T11:50:04;3.57;;;2.30;;
13584;SDS011;6863;48.402;9.994;2023-04-25T11:52:36;6.10;;;3.83;;
13584;SDS011;6863;48.402;9.994;2023-04-25T11:55:08;5.37;;;4.20;;
13584;SDS011;6863;48.402;9.994;2023-04-25T11:57:38;4.13;;;3.73;;
13584;SDS011;6863;48.402;9.994;2023-04-25T12:00:05;9.70;;;5.50;;
13584;SDS011;6863;48.402;9.994;2023-04-25T12:02:34;2.47;;;2.27;;
13584;SDS011;6863;48.402;9.994;2023-04-25T12:05:01;3.07;;;2.10;;
13584;SDS011;6863;48.402;9.994;2023-04-25T12:07:29;5.73;;;2.67;;
13584;SDS011;6863;48.402;9.994;2023-04-25T12:09:55;2.40;;;2.10;;
13584;SDS011;6863;48.402;9.994;2023-04-25T12:12:21;2.30;;;2.10;;
13584;SDS011;6863;48.402;9.994;2023-04-25T12:14:47;2.93;;;2.53;;
13584;SDS011;6863;48.402;9.994;2023-04-25T12:17:13;2.80;;;2.60;;
13584;SDS011;6863;48.402;9.994;2023-04-25T12:19:39;2.47;;;2.27;;
13584;SDS011;6863;48.402;9.994;2023-04-25T12:22:18;2.53;;;2.33;;
13584;SDS011;6863;48.402;9.994;2023-04-25T12:24:48;3.17;;;2.97;;
13584;SDS011;6863;48.402;9.994;2023-04-25T12:27:14;2.30;;;2.20;;
13584;SDS011;6863;48.402;9.994;2023-04-25T12:29:49;2.10;;;2.00;;
13584;SDS011;6863;48.402;9.994;2023-04-25T12:32:19;2.73;;;2.53;;
13584;SDS011;6863;48.402;9.994;2023-04-25T12:34:45;2.20;;;2.10;;
13584;SDS011;6863;48.402;9.994;2023-04-25T12:37:11;2.00;;;1.90;;
13584;SDS011;6863;48.402;9.994;2023-04-25T12:39:36;2.77;;;2.40;;
13584;SDS011;6863;48.402;9.994;2023-04-25T12:42:02;1.80;;;1.70;;
13584;SDS011;6863;48.402;9.994;2023-04-25T12:44:28;1.40;;;1.40;;
13584;SDS011;6863;48.402;9.994;2023-04-25T12:46:56;1.63;;;1.53;;
13584;SDS011;6863;48.402;9.994;2023-04-25T12:49:22;1.83;;;1.73;;
13584;SDS011;6863;48.402;9.994;2023-04-25T12:51:48;1.47;;;1.47;;
13584;SDS011;6863;48.402;9.994;2023-04-25T12:54:14;1.40;;;1.30;;
13584;SDS011;6863;48.402;9.994;2023-04-25T12:56:40;2.37;;;1.70;;
13584;SDS011;6863;48.402;9.994;2023-04-25T12:59:06;2.23;;;2.10;;
13584;SDS011;6863;48.402;9.994;2023-04-25T13:01:31;0.90;;;0.90;;
13584;SDS011;6863;48.402;9.994;2023-04-25T13:03:57;1.33;;;1.23;;
13584;SDS011;6863;48.402;9.994;2023-04-25T13:06:23;1.03;;;1.03;;
13584;SDS011;6863;48.402;9.994;2023-04-25T13:08:49;1.13;;;1.13;;
13584;SDS011;6863;48.402;9.994;2023-04-25T13:11:14;1.33;;;1.33;;
13584;SDS011;6863;48.402;9.994;2023-04-25T13:13:40;1.60;;;1.50;;
13584;SDS011;6863;48.402;9.994;2023-04-25T13:16:06;0.80;;;0.80;;
13584;SDS011;6863;48.402;9.994;2023-04-25T13:18:32;0.83;;;0.83;;
13584;SDS011;6863;48.402;9.994;2023-04-25T13:20:58;1.10;;;1.10;;
13584;SDS011;6863;48.402;9.994;2023-04-25T13:23:25;1.07;;;1.07;;
13584;SDS011;6863;48.402;9.994;2023-04-25T13:25:52;0.90;;;0.90;;
13584;SDS011;6863;48.402;9.994;2023-04-25T13:28:18;1.70;;;1.47;;
13584;SDS011;6863;48.402;9.994;2023-04-25T13:30:43;1.20;;;1.10;;
13584;SDS011;6863;48.402;9.994;2023-04-25T13:33:09;0.97;;;0.90;;
13584;SDS011;6863;48.402;9.994;2023-04-25T13:35:36;1.30;;;1.20;;
13584;SDS011;6863;48.402;9.994;2023-04-25T13:38:02;2.40;;;1.40;;
13584;SDS011;6863;48.402;9.994;2023-04-25T13:40:29;1.42;;;1.38;;
13584;SDS011;6863;48.402;9.994;2023-04-25T13:42:55;1.10;;;1.05;;
13584;SDS011;6863;48.402;9.994;2023-04-25T13:45:20;1.50;;;1.40;;
13584;SDS011;6863;48.402;9.994;2023-04-25T13:47:46;1.60;;;1.50;;
13584;SDS011;6863;48.402;9.994;2023-04-25T13:50:12;1.75;;;1.65;;
13584;SDS011;6863;48.402;9.994;2023-04-25T13:52:38;1.80;;;1.70;;
13584;SDS011;6863;48.402;9.994;2023-04-25T13:55:05;2.28;;;2.08;;
13584;SDS011;6863;48.402;9.994;2023-04-25T13:57:32;2.10;;;2.00;;
13584;SDS011;6863;48.402;9.994;2023-04-25T13:59:58;3.90;;;2.70;;
13584;SDS011;6863;48.402;9.994;2023-04-25T14:02:24;2.25;;;2.15;;
13584;SDS011;6863;48.402;9.994;2023-04-25T14:04:50;2.63;;;2.42;;
13584;SDS011;6863;48.402;9.994;2023-04-25T14:07:16;2.38;;;2.15;;
13584;SDS011;6863;48.402;9.994;2023-04-25T14:09:43;2.58;;;2.38;;
13584;SDS011;6863;48.402;9.994;2023-04-25T14:12:08;2.55;;;2.35;;
13584;SDS011;6863;48.402;9.994;2023-04-25T14:14:34;2.25;;;2.13;;
13584;SDS011;6863;48.402;9.994;2023-04-25T14:17:00;1.90;;;1.80;;
13584;SDS011;6863;48.402;9.994;2023-04-25T14:19:25;2.78;;;2.17;;
13584;SDS011;6863;48.402;9.994;2023-04-25T14:21:51;2.50;;;1.98;;
13584;SDS011;6863;48.402;9.994;2023-04-25T14:24:17;2.58;;;2.38;;
13584;SDS011;6863;48.402;9.994;2023-04-25T14:26:43;2.17;;;1.85;;
13584;SDS011;6863;48.402;9.994;2023-04-25T14:29:08;1.83;;;1.73;;
13584;SDS011;6863;48.402;9.994;2023-04-25T14:31:36;2.22;;;2.13;;
13584;SDS011;6863;48.402;9.994;2023-04-25T14:34:03;2.15;;;2.05;;
13584;SDS011;6863;48.402;9.994;2023-04-25T14:36:29;3.33;;;2.67;;
13584;SDS011;6863;48.402;9.994;2023-04-25T14:38:56;4.18;;;2.00;;
13584;SDS011;6863;48.402;9.994;2023-04-25T14:41:22;2.90;;;2.70;;
13584;SDS011;6863;48.402;9.994;2023-04-25T14:43:48;2.20;;;2.08;;
13584;SDS011;6863;48.402;9.994;2023-04-25T14:46:13;2.40;;;2.00;;
13584;SDS011;6863;48.402;9.994;2023-04-25T14:48:39;2.40;;;2.20;;
13584;SDS011;6863;48.402;9.994;2023-04-25T14:51:05;2.13;;;2.03;;
13584;SDS011;6863;48.402;9.994;2023-04-25T14:53:31;2.50;;;2.30;;
13584;SDS011;6863;48.402;9.994;2023-04-25T14:55:57;2.03;;;1.92;;
13584;SDS011;6863;48.402;9.994;2023-04-25T14:58:22;2.90;;;2.13;;
13584;SDS011;6863;48.402;9.994;2023-04-25T15:00:48;3.22;;;2.83;;
13584;SDS011;6863;48.402;9.994;2023-04-25T15:03:14;2.47;;;2.28;;
13584;SDS011;6863;48.402;9.994;2023-04-25T15:05:41;5.32;;;2.63;;
13584;SDS011;6863;48.402;9.994;2023-04-25T15:08:07;3.85;;;2.92;;
13584;SDS011;6863;48.402;9.994;2023-04-25T15:10:33;2.88;;;2.60;;
13584;SDS011;6863;48.402;9.994;2023-04-25T15:12:59;2.65;;;2.47;;